Time;durP1;ratioP1;P1;durP2;ratioP2;P2;SDS_P1;SDS_P2;PMS_P1;PMS_P2;Temp;Humidity;BMP_temperature;BMP_pressure;BME280_temperature;BME280_humidity;BME280_pressure;Samples;Min_cycle;Max_cycle;Signal;HPM_P1;HPM_P2
2022/07/27 00:00:04;;;;;;;1999.90;999.90;;;;;;;15.83;100.00;99544.13;5059250;28;20053;-51
2022/07/27 00:03:03;;;;;;;1999.90;999.90;;;;;;;15.96;100.00;99541.72;5056648;28;20040;-51
2022/07/27 00:05:47;;;;;;;1999.90;999.90;;;;;;;15.88;100.00;99532.38;5055259;28;20425;-51
2022/07/27 00:08:32;;;;;;;1999.90;999.90;;;;;;;15.97;100.00;99535.50;5055317;28;20434;-51
2022/07/27 00:11:16;;;;;;;1999.90;999.90;;;;;;;15.85;100.00;99540.44;5052755;28;20045;-50
2022/07/27 00:14:00;;;;;;;1999.90;999.90;;;;;;;15.64;100.00;99537.09;5056533;28;20068;-51
2022/07/27 00:16:45;;;;;;;1999.90;999.90;;;;;;;15.62;100.00;99540.72;5055039;28;20045;-51
2022/07/27 00:19:29;;;;;;;1999.90;999.90;;;;;;;15.55;100.00;99534.91;5060877;28;20041;-51
2022/07/27 00:22:14;;;;;;;1999.90;999.90;;;;;;;15.51;100.00;99538.63;5072604;28;20106;-52
2022/07/27 00:24:59;;;;;;;1999.90;999.90;;;;;;;15.47;100.00;99541.47;5068535;28;20040;-51
2022/07/27 00:27:43;;;;;;;1999.90;999.90;;;;;;;15.28;100.00;99531.84;5067323;28;20047;-51
2022/07/27 00:30:27;;;;;;;1999.90;999.90;;;;;;;15.37;100.00;99546.34;5064974;28;20045;-51
2022/07/27 00:33:12;;;;;;;1999.90;999.90;;;;;;;15.00;100.00;99532.31;5064204;28;20045;-51
2022/07/27 00:35:57;;;;;;;1999.90;999.90;;;;;;;15.27;100.00;99542.47;5067641;28;20052;-51
2022/07/27 00:38:42;;;;;;;1999.90;999.90;;;;;;;15.29;100.00;99559.06;5064473;28;20060;-50
2022/07/27 00:41:27;;;;;;;1999.90;999.90;;;;;;;15.09;100.00;99547.69;5064419;28;20045;-50
2022/07/27 00:44:11;;;;;;;1999.90;999.90;;;;;;;15.16;100.00;99554.38;5058974;28;20033;-51
2022/07/27 00:46:56;;;;;;;1999.90;999.90;;;;;;;15.12;100.00;99558.09;5056266;28;20036;-52
2022/07/27 00:49:41;;;;;;;1999.90;999.90;;;;;;;15.05;100.00;99553.22;5052535;28;20384;-50
2022/07/27 00:52:27;;;;;;;1999.90;999.90;;;;;;;14.99;100.00;99562.25;5054589;28;20052;-51
2022/07/27 00:55:12;;;;;;;1999.90;999.90;;;;;;;15.00;100.00;99560.47;5059273;28;20048;-51
2022/07/27 00:57:57;;;;;;;1999.90;999.90;;;;;;;15.06;100.00;99571.59;5060802;28;20120;-51
2022/07/27 01:00:41;;;;;;;1999.90;999.90;;;;;;;15.08;100.00;99574.13;5061625;28;20229;-50
2022/07/27 01:03:26;;;;;;;1999.90;999.90;;;;;;;15.00;100.00;99578.94;5061829;28;20048;-51
2022/07/27 01:06:12;;;;;;;1999.90;999.90;;;;;;;14.99;100.00;99575.44;5060565;28;20067;-51
2022/07/27 01:12:00;;;;;;;1999.90;999.90;;;;;;;14.99;100.00;99569.31;5057678;28;20041;-51
2022/07/27 01:14:46;;;;;;;1999.90;999.90;;;;;;;14.93;100.00;99558.13;5060169;28;20040;-51
2022/07/27 01:17:30;;;;;;;1999.90;999.90;;;;;;;14.92;100.00;99564.31;5060899;28;20044;-52
2022/07/27 01:20:15;;;;;;;1999.90;999.90;;;;;;;15.05;100.00;99567.25;5066467;28;20040;-50
2022/07/27 01:22:59;;;;;;;1999.90;999.90;;;;;;;15.14;100.00;99568.56;5064861;28;20413;-51
2022/07/27 01:25:43;;;;;;;1999.90;999.90;;;;;;;15.03;100.00;99584.06;5059175;28;21897;-51
2022/07/27 01:28:28;;;;;;;1999.90;999.90;;;;;;;15.06;100.00;99581.28;5058139;28;20053;-51
2022/07/27 01:31:12;;;;;;;1999.90;999.90;;;;;;;14.94;100.00;99580.06;5055859;28;20049;-51
2022/07/27 01:33:58;;;;;;;1999.90;999.90;;;;;;;14.98;100.00;99573.72;5057393;28;20987;-51
2022/07/27 01:36:42;;;;;;;1999.90;999.90;;;;;;;14.99;100.00;99571.94;5056240;28;20045;-51
2022/07/27 01:39:27;;;;;;;1999.90;999.90;;;;;;;15.01;100.00;99570.06;5058254;28;20098;-51
2022/07/27 01:42:12;;;;;;;1999.90;999.90;;;;;;;14.94;100.00;99574.78;5055813;28;20044;-51
2022/07/27 01:44:56;;;;;;;1999.90;999.90;;;;;;;14.91;100.00;99569.66;5058034;28;20052;-51
2022/07/27 01:47:41;;;;;;;1999.90;999.90;;;;;;;14.95;100.00;99574.72;5062047;28;20072;-51
2022/07/27 01:50:26;;;;;;;1999.90;999.90;;;;;;;15.00;100.00;99581.56;5054649;28;20048;-51
2022/07/27 01:53:10;;;;;;;1999.90;999.90;;;;;;;14.79;100.00;99581.63;5063347;28;20049;-52
2022/07/27 01:55:55;;;;;;;1999.90;999.90;;;;;;;14.75;100.00;99564.22;5056135;28;20431;-51
2022/07/27 01:58:42;;;;;;;1999.90;999.90;;;;;;;14.90;100.00;99579.34;5055506;28;20076;-51
2022/07/27 02:01:27;;;;;;;1999.90;999.90;;;;;;;14.94;100.00;99574.78;5056994;28;20048;-51
2022/07/27 02:04:11;;;;;;;1999.90;999.90;;;;;;;14.86;100.00;99584.84;5054307;28;20044;-51
2022/07/27 02:06:56;;;;;;;1999.90;999.90;;;;;;;14.81;100.00;99581.56;5054010;28;20040;-51
2022/07/27 02:09:40;;;;;;;1999.90;999.90;;;;;;;14.73;100.00;99568.75;5057784;28;20056;-51
2022/07/27 02:12:34;;;;;;;1999.90;999.90;;;;;;;14.79;100.00;99586.91;5054948;28;20502;-50
2022/07/27 02:15:21;;;;;;;1999.90;999.90;;;;;;;14.73;100.00;99590.69;5059001;28;20037;-52
2022/07/27 02:18:06;;;;;;;1999.90;999.90;;;;;;;14.85;100.00;99589.28;5058329;28;20407;-51
2022/07/27 02:20:50;;;;;;;1999.90;999.90;;;;;;;14.79;100.00;99588.69;5060455;28;20141;-51
2022/07/27 02:23:36;;;;;;;1999.90;999.90;;;;;;;14.76;100.00;99592.31;5066601;28;20417;-52
2022/07/27 02:26:20;;;;;;;1999.90;999.90;;;;;;;14.68;100.00;99592.66;5066197;28;20056;-51
2022/07/27 02:29:06;;;;;;;1999.90;999.90;;;;;;;14.77;100.00;99603.72;5056243;28;20048;-51
2022/07/27 02:31:50;;;;;;;1999.90;999.90;;;;;;;14.71;100.00;99600.41;5057829;28;20074;-51
2022/07/27 02:34:35;;;;;;;1999.90;999.90;;;;;;;14.76;100.00;99599.38;5061306;28;20048;-49
2022/07/27 02:37:19;;;;;;;1999.90;999.90;;;;;;;14.69;100.00;99604.09;5052889;28;20033;-51
2022/07/27 02:40:05;;;;;;;1999.90;999.90;;;;;;;14.75;100.00;99603.78;5054835;28;20090;-51
2022/07/27 02:42:49;;;;;;;1999.90;999.90;;;;;;;14.84;100.00;99613.91;5052814;28;20067;-51
2022/07/27 02:45:33;;;;;;;1999.90;999.90;;;;;;;14.83;100.00;99604.28;5058349;28;20044;-51
2022/07/27 02:48:18;;;;;;;1999.90;999.90;;;;;;;14.76;100.00;99610.78;5052989;28;20049;-52
2022/07/27 02:51:02;;;;;;;1999.90;999.90;;;;;;;14.71;100.00;99605.69;5058696;28;20379;-51
2022/07/27 02:53:47;;;;;;;1999.90;999.90;;;;;;;14.84;100.00;99621.81;5055565;28;20111;-51
2022/07/27 02:56:31;;;;;;;1999.90;999.90;;;;;;;14.91;100.00;99622.38;5056782;28;20049;-50
2022/07/27 02:59:17;;;;;;;1999.90;999.90;;;;;;;14.92;100.00;99630.25;5055151;28;20037;-50
2022/07/27 03:02:01;;;;;;;1999.90;999.90;;;;;;;14.90;100.00;99613.63;5054323;28;20049;-52
2022/07/27 03:04:45;;;;;;;1999.90;999.90;;;;;;;14.92;100.00;99622.34;5066281;28;20052;-50
2022/07/27 03:07:30;;;;;;;1999.90;999.90;;;;;;;14.91;100.00;99617.97;5058765;28;20044;-51
2022/07/27 03:10:14;;;;;;;1999.90;999.90;;;;;;;14.84;100.00;99627.09;5058713;28;20041;-51
2022/07/27 03:12:59;;;;;;;1999.90;999.90;;;;;;;14.87;100.00;99618.19;5061958;28;20642;-51
2022/07/27 03:15:43;;;;;;;1999.90;999.90;;;;;;;14.90;100.00;99621.53;5061382;28;20136;-50
2022/07/27 03:18:28;;;;;;;1999.90;999.90;;;;;;;14.93;100.00;99624.03;5067642;28;20427;-51
2022/07/27 03:21:12;;;;;;;1999.90;999.90;;;;;;;15.03;100.00;99620.97;5064092;28;20048;-52
2022/07/27 03:23:57;;;;;;;1999.90;999.90;;;;;;;15.08;100.00;99618.97;5064423;28;20045;-51
2022/07/27 03:26:41;;;;;;;1999.90;999.90;;;;;;;15.02;100.00;99628.03;5056799;28;20049;-51
2022/07/27 03:29:25;;;;;;;1999.90;999.90;;;;;;;15.01;100.00;99622.81;5069059;28;20044;-50
2022/07/27 03:32:09;;;;;;;1999.90;999.90;;;;;;;15.11;100.00;99619.72;5070122;28;20052;-52
2022/07/27 03:34:54;;;;;;;1999.90;999.90;;;;;;;15.18;100.00;99623.75;5060282;28;20503;-51
2022/07/27 03:37:38;;;;;;;1999.90;999.90;;;;;;;15.24;100.00;99625.28;5064243;28;20064;-51
2022/07/27 03:40:23;;;;;;;1999.90;999.90;;;;;;;15.28;100.00;99634.75;5059999;28;20056;-52
2022/07/27 03:43:07;;;;;;;1999.90;999.90;;;;;;;15.18;100.00;99634.31;5059559;28;20040;-52
2022/07/27 03:45:52;;;;;;;1999.90;999.90;;;;;;;15.34;100.00;99628.28;5062883;28;20049;-52
2022/07/27 03:48:36;;;;;;;1999.90;999.90;;;;;;;15.40;100.00;99630.66;5068634;28;20072;-51
2022/07/27 03:51:21;;;;;;;1999.90;999.90;;;;;;;15.47;100.00;99625.94;5064883;28;20044;-52
2022/07/27 03:54:06;;;;;;;1999.90;999.90;;;;;;;15.52;100.00;99623.94;5059046;28;20040;-50
2022/07/27 03:56:51;;;;;;;1999.90;999.90;;;;;;;15.39;100.00;99631.59;5062966;28;20049;-50
2022/07/27 03:59:35;;;;;;;1999.90;999.90;;;;;;;15.36;100.00;99629.94;5060908;28;20088;-51
2022/07/27 04:02:19;;;;;;;1999.90;999.90;;;;;;;15.61;100.00;99636.69;5066832;28;20049;-52
2022/07/27 04:05:05;;;;;;;1999.90;999.90;;;;;;;15.67;100.00;99630.31;5065883;28;20047;-52
2022/07/27 04:07:49;;;;;;;1999.90;999.90;;;;;;;15.64;100.00;99631.28;5063496;28;20499;-51
2022/07/27 04:10:33;;;;;;;1999.90;999.90;;;;;;;15.37;100.00;99631.69;5064208;28;20135;-51
2022/07/27 04:13:20;;;;;;;1999.90;999.90;;;;;;;15.73;100.00;99630.88;5060084;28;20040;-50
2022/07/27 04:16:05;;;;;;;1999.90;999.90;;;;;;;15.71;100.00;99621.31;5059653;28;20050;-50
2022/07/27 04:18:52;;;;;;;1999.90;999.90;;;;;;;15.72;100.00;99617.72;5062372;28;20048;-52
2022/07/27 04:21:36;;;;;;;1999.90;999.90;;;;;;;15.81;100.00;99622.56;5056809;28;20047;-50
2022/07/27 04:24:21;;;;;;;1999.90;999.90;;;;;;;15.95;100.00;99608.66;5055547;28;20045;-51
2022/07/27 04:27:05;;;;;;;1999.90;999.90;;;;;;;16.21;100.00;99616.09;5057895;28;20694;-50
2022/07/27 04:29:50;;;;;;;1999.90;999.90;;;;;;;16.13;100.00;99616.50;5055077;28;20052;-51
2022/07/27 04:32:34;;;;;;;1999.90;999.90;;;;;;;16.28;100.00;99619.28;5051491;28;20064;-51
2022/07/27 04:35:19;;;;;;;1999.90;999.90;;;;;;;16.02;100.00;99613.56;5052972;28;20036;-51
2022/07/27 04:38:03;;;;;;;1999.90;999.90;;;;;;;16.08;100.00;99621.16;5052683;28;20123;-51
2022/07/27 04:40:48;;;;;;;1999.90;999.90;;;;;;;16.11;100.00;99625.44;5052735;28;20062;-52
2022/07/27 04:43:32;;;;;;;1999.90;999.90;;;;;;;16.28;100.00;99614.88;5052637;28;20041;-52
2022/07/27 04:46:17;;;;;;;1999.90;999.90;;;;;;;16.13;100.00;99624.44;5050796;28;20056;-51
2022/07/27 04:49:01;;;;;;;1999.90;999.90;;;;;;;16.04;100.00;99624.03;5057596;28;20044;-51
2022/07/27 04:51:46;;;;;;;1999.90;999.90;;;;;;;16.17;100.00;99619.00;5062488;28;20585;-52
2022/07/27 04:54:30;;;;;;;1999.90;999.90;;;;;;;16.34;100.00;99616.34;5052737;28;20088;-51
2022/07/27 04:57:15;;;;;;;1999.90;999.90;;;;;;;16.42;100.00;99605.38;5060658;28;20040;-52
2022/07/27 04:59:59;;;;;;;1999.90;999.90;;;;;;;16.60;100.00;99601.75;5054383;28;20048;-52
2022/07/27 05:02:43;;;;;;;1999.90;999.90;;;;;;;16.45;100.00;99610.50;5052986;28;20057;-51
2022/07/27 05:05:27;;;;;;;1999.90;999.90;;;;;;;16.43;100.00;99620.28;5055126;28;20435;-51
2022/07/27 05:08:12;;;;;;;1999.90;999.90;;;;;;;16.67;100.00;99621.66;5056952;28;20044;-52
2022/07/27 05:10:57;;;;;;;1999.90;999.90;;;;;;;17.01;100.00;99614.59;5065034;28;20048;-52
2022/07/27 05:13:42;;;;;;;1999.90;999.90;;;;;;;16.87;100.00;99628.56;5057399;28;20048;-51
2022/07/27 05:16:26;;;;;;;1999.90;999.90;;;;;;;17.06;100.00;99617.81;5062568;28;20150;-52
2022/07/27 05:19:11;;;;;;;1999.90;999.90;;;;;;;17.32;100.00;99636.69;5058679;28;20049;-52
2022/07/27 05:21:55;;;;;;;1999.90;999.90;;;;;;;17.11;100.00;99626.38;5066992;28;20083;-50
2022/07/27 05:24:40;;;;;;;1999.90;999.90;;;;;;;17.18;100.00;99635.66;5061441;28;20041;-51
2022/07/27 05:27:24;;;;;;;1999.90;999.90;;;;;;;17.29;100.00;99637.75;5066055;28;20080;-52
2022/07/27 05:30:10;;;;;;;1999.90;999.90;;;;;;;17.59;100.00;99639.63;5060210;28;20511;-51
2022/07/27 05:32:54;;;;;;;1999.90;999.90;;;;;;;17.49;100.00;99644.56;5058230;28;20045;-52
2022/07/27 05:35:39;;;;;;;1999.90;999.90;;;;;;;17.74;100.00;99647.53;5064518;28;20105;-52
2022/07/27 05:38:23;;;;;;;1999.90;999.90;;;;;;;17.84;100.00;99642.59;5062036;28;20044;-52
2022/07/27 05:41:08;;;;;;;1999.90;999.90;;;;;;;17.64;100.00;99643.69;5060279;28;20048;-52
2022/07/27 05:43:53;;;;;;;1999.90;999.90;;;;;;;18.14;100.00;99632.00;5066507;28;20045;-52
2022/07/27 05:46:38;;;;;;;1999.90;999.90;;;;;;;17.54;100.00;99634.56;5051752;28;20040;-52
2022/07/27 05:49:23;;;;;;;1999.90;999.90;;;;;;;17.52;100.00;99625.88;5056501;28;20037;-52
2022/07/27 05:52:07;;;;;;;1999.90;999.90;;;;;;;17.89;100.00;99637.88;5062445;28;20072;-52
2022/07/27 05:54:52;;;;;;;1999.90;999.90;;;;;;;17.79;100.00;99630.56;5058124;28;20056;-52
2022/07/27 05:57:39;;;;;;;1999.90;999.90;;;;;;;17.76;100.00;99636.84;5063374;28;20160;-52
2022/07/27 06:00:23;;;;;;;1999.90;999.90;;;;;;;17.41;100.00;99647.63;5067409;28;20053;-52
2022/07/27 06:03:08;;;;;;;1999.90;999.90;;;;;;;17.71;100.00;99646.84;5066240;28;20040;-51
2022/07/27 06:07:57;;;;;;;1999.90;999.90;;;;;;;17.86;100.00;99647.81;5059685;28;20044;-52
2022/07/27 06:08:57;;;;;;;1999.90;999.90;;;;;;;17.74;100.00;99657.25;5056941;28;20041;-53
2022/07/27 06:11:42;;;;;;;1999.90;999.90;;;;;;;18.11;100.00;99652.53;5065493;28;20143;-53
2022/07/27 06:14:27;;;;;;;1999.90;999.90;;;;;;;18.27;100.00;99644.53;5068804;28;20368;-52
2022/07/27 06:17:11;;;;;;;1999.90;999.90;;;;;;;18.64;100.00;99661.72;5072329;28;20063;-51
2022/07/27 06:19:56;;;;;;;1999.90;999.90;;;;;;;18.71;100.00;99662.22;5067194;28;20415;-51
2022/07/27 06:22:51;;;;;;;1999.90;999.90;;;;;;;18.29;100.00;99655.88;5068533;28;20063;-52
2022/07/27 06:25:36;;;;;;;1999.90;999.90;;;;;;;18.87;100.00;99669.16;5069492;28;20045;-53
2022/07/27 06:28:20;;;;;;;1999.90;999.90;;;;;;;18.60;100.00;99663.72;5069366;28;20498;-53
2022/07/27 06:31:05;;;;;;;1999.90;999.90;;;;;;;18.43;100.00;99659.44;5067304;28;20048;-52
2022/07/27 06:33:49;;;;;;;1999.90;999.90;;;;;;;18.92;100.00;99660.94;5062634;28;20044;-52
2022/07/27 06:36:34;;;;;;;1999.90;999.90;;;;;;;19.00;100.00;99644.53;5059277;28;20110;-51
2022/07/27 06:39:19;;;;;;;1999.90;999.90;;;;;;;18.76;100.00;99660.19;5055499;28;20544;-52
2022/07/27 06:42:04;;;;;;;1999.90;999.90;;;;;;;18.55;100.00;99651.69;5043046;28;20475;-51
2022/07/27 06:44:48;;;;;;;1999.90;999.90;;;;;;;18.73;100.00;99660.38;5053044;28;20044;-52
2022/07/27 06:47:33;;;;;;;1999.90;999.90;;;;;;;18.90;100.00;99657.53;5052995;28;20041;-52
2022/07/27 06:50:19;;;;;;;1999.90;999.90;;;;;;;19.48;100.00;99661.81;5053282;28;20052;-52
2022/07/27 06:53:03;;;;;;;1999.90;999.90;;;;;;;19.66;100.00;99662.47;5051268;28;20044;-52
2022/07/27 06:55:48;;;;;;;1999.90;999.90;;;;;;;19.81;100.00;99664.13;5054863;28;20056;-53
2022/07/27 06:58:34;;;;;;;1999.90;999.90;;;;;;;19.77;100.00;99672.41;5058738;28;20052;-53
2022/07/27 07:01:18;;;;;;;1999.90;999.90;;;;;;;19.64;100.00;99688.28;5051441;28;20052;-53
2022/07/27 07:04:03;;;;;;;1999.90;999.90;;;;;;;19.16;100.00;99677.13;5056652;28;20045;-52
2022/07/27 07:06:47;;;;;;;1999.90;999.90;;;;;;;19.31;100.00;99664.72;5054155;28;20045;-53
2022/07/27 07:09:32;;;;;;;1999.90;999.90;;;;;;;19.82;100.00;99665.84;5056582;28;20052;-53
2022/07/27 07:12:17;;;;;;;1999.90;999.90;;;;;;;19.19;100.00;99663.66;5057238;28;20087;-53
2022/07/27 07:15:02;;;;;;;1999.90;999.90;;;;;;;20.08;100.00;99664.13;5058322;28;20037;-53
2022/07/27 07:17:46;;;;;;;1999.90;999.90;;;;;;;19.70;100.00;99660.47;5057538;28;20690;-53
2022/07/27 07:20:31;;;;;;;1999.90;999.90;;;;;;;20.02;100.00;99661.88;5058755;28;20094;-52
2022/07/27 07:23:15;;;;;;;1999.90;999.90;;;;;;;20.15;100.00;99661.03;5057520;28;20048;-53
2022/07/27 07:26:00;;;;;;;1999.90;999.90;;;;;;;20.20;100.00;99656.28;5054272;28;20250;-52
2022/07/27 07:28:44;;;;;;;1999.90;999.90;;;;;;;19.98;100.00;99655.03;5056424;28;20045;-52
2022/07/27 07:31:28;;;;;;;1999.90;999.90;;;;;;;19.50;100.00;99659.94;5058429;28;20053;-53
2022/07/27 07:34:13;;;;;;;1999.90;999.90;;;;;;;19.53;100.00;99666.81;5057943;28;20137;-53
2022/07/27 07:36:57;;;;;;;1999.90;999.90;;;;;;;19.92;100.00;99658.13;5059303;28;20094;-53
2022/07/27 07:39:42;;;;;;;1999.90;999.90;;;;;;;20.36;100.00;99659.59;5058151;28;20033;-54
2022/07/27 07:42:26;;;;;;;1999.90;999.90;;;;;;;20.72;100.00;99661.56;5060736;28;20048;-53
2022/07/27 07:45:10;;;;;;;1999.90;999.90;;;;;;;20.42;100.00;99666.31;5056990;28;20053;-53
2022/07/27 07:47:57;;;;;;;1999.90;999.90;;;;;;;20.89;100.00;99659.53;5055274;28;20056;-54
2022/07/27 07:50:41;;;;;;;1999.90;999.90;;;;;;;20.30;100.00;99673.31;5059210;28;20045;-53
2022/07/27 07:53:26;;;;;;;1999.90;999.90;;;;;;;20.79;100.00;99683.28;5056397;28;20044;-53
2022/07/27 07:56:10;;;;;;;1999.90;999.90;;;;;;;20.55;100.00;99683.16;5056982;28;20049;-53
2022/07/27 07:58:55;;;;;;;1999.90;999.90;;;;;;;20.21;100.00;99688.06;5056510;28;20052;-54
2022/07/27 08:01:39;;;;;;;1999.90;999.90;;;;;;;20.91;100.00;99685.09;5062271;28;20460;-53
2022/07/27 08:04:24;;;;;;;1999.90;999.90;;;;;;;22.01;100.00;99676.31;5063130;28;20048;-54
2022/07/27 08:07:08;;;;;;;1999.90;999.90;;;;;;;21.80;100.00;99669.91;5058622;28;20483;-54
2022/07/27 08:09:53;;;;;;;1999.90;999.90;;;;;;;22.20;100.00;99666.94;5064078;28;20045;-54
2022/07/27 08:12:40;;;;;;;1999.90;999.90;;;;;;;22.50;100.00;99655.78;5062718;28;20041;-55
2022/07/27 08:15:25;;;;;;;1999.90;999.90;;;;;;;23.03;100.00;99664.13;5062185;28;20410;-54
2022/07/27 08:18:09;;;;;;;1999.90;999.90;;;;;;;22.78;100.00;99665.16;5061963;28;20063;-53
2022/07/27 08:20:54;;;;;;;1999.90;999.90;;;;;;;24.23;100.00;99664.09;5063877;28;20048;-55
2022/07/27 08:23:38;;;;;;;1999.90;999.90;;;;;;;24.15;100.00;99655.91;5063461;28;20051;-55
2022/07/27 08:26:23;;;;;;;1999.90;999.90;;;;;;;24.77;100.00;99669.44;5060495;28;20049;-55
2022/07/27 08:29:07;;;;;;;1999.90;999.90;;;;;;;24.26;100.00;99671.03;5058597;28;20063;-54
2022/07/27 08:31:52;;;;;;;1999.90;999.90;;;;;;;22.91;100.00;99676.59;5056379;28;20048;-55
2022/07/27 08:34:37;;;;;;;1999.90;999.90;;;;;;;23.40;100.00;99671.84;5053989;28;20806;-54
2022/07/27 08:37:21;;;;;;;1999.90;999.90;;;;;;;22.35;100.00;99674.66;5054454;28;20056;-55
2022/07/27 08:40:06;;;;;;;1999.90;999.90;;;;;;;21.15;100.00;99674.53;5054595;28;20049;-54
2022/07/27 08:42:52;;;;;;;1999.90;999.90;;;;;;;21.70;100.00;99683.06;5053916;28;20053;-55
2022/07/27 08:45:37;;;;;;;1999.90;999.90;;;;;;;21.49;100.00;99685.47;5056914;28;20049;-54
2022/07/27 08:48:27;;;;;;;1999.90;999.90;;;;;;;22.53;100.00;99671.56;5052381;28;20076;-54
2022/07/27 08:51:13;;;;;;;1999.90;999.90;;;;;;;22.83;100.00;99665.66;5051396;28;20682;-54
2022/07/27 08:53:59;;;;;;;1999.90;999.90;;;;;;;22.31;100.00;99656.34;5057053;28;20040;-55
2022/07/27 08:56:43;;;;;;;1999.90;999.90;;;;;;;22.22;100.00;99657.03;5066823;28;20061;-53
2022/07/27 08:59:28;;;;;;;1999.90;999.90;;;;;;;22.04;100.00;99660.09;5069519;28;20060;-54
2022/07/27 09:02:13;;;;;;;1999.90;999.90;;;;;;;21.89;100.00;99659.41;5063875;28;20080;-54
2022/07/27 09:04:58;;;;;;;1999.90;999.90;;;;;;;22.22;100.00;99659.69;5054254;28;20044;-54
2022/07/27 09:07:43;;;;;;;1999.90;999.90;;;;;;;22.07;100.00;99659.03;5061689;28;20044;-54
2022/07/27 09:10:32;;;;;;;1999.90;999.90;;;;;;;22.72;100.00;99654.97;5067308;28;20053;-54
2022/07/27 09:13:17;;;;;;;1999.90;999.90;;;;;;;22.89;100.00;99664.34;5067441;28;20400;-53
2022/07/27 09:16:05;;;;;;;1999.90;999.90;;;;;;;22.37;100.00;99654.06;5067710;28;20423;-54
2022/07/27 09:18:58;;;;;;;1999.90;999.90;;;;;;;23.25;100.00;99649.91;5070669;28;20466;-55
2022/07/27 09:21:43;;;;;;;1999.90;999.90;;;;;;;25.22;100.00;99650.34;5067018;28;20048;-55
2022/07/27 09:24:28;;;;;;;1999.90;999.90;;;;;;;24.25;100.00;99647.94;5064915;28;20040;-54
2022/07/27 09:27:12;;;;;;;1999.90;999.90;;;;;;;24.17;100.00;99645.91;5057092;28;20044;-55
2022/07/27 09:30:01;;;;;;;1999.90;999.90;;;;;;;23.16;100.00;99638.13;5055121;28;20127;-55
2022/07/27 09:33:05;;;;;;;1999.90;999.90;;;;;;;22.81;100.00;99647.09;5058053;28;20844;-55
2022/07/27 09:35:58;;;;;;;1999.90;999.90;;;;;;;22.68;100.00;99649.00;5060594;28;20429;-54
2022/07/27 09:38:56;;;;;;;1999.90;999.90;;;;;;;22.27;100.00;99641.53;5055343;28;20044;-54
2022/07/27 09:41:47;;;;;;;1999.90;999.90;;;;;;;22.77;100.00;99652.78;5059160;28;20061;-54
2022/07/27 09:44:33;;;;;;;1999.90;999.90;;;;;;;22.91;100.00;99654.38;5051075;28;20048;-53
2022/07/27 09:47:27;;;;;;;1999.90;999.90;;;;;;;22.24;100.00;99649.78;5053585;28;20396;-54
2022/07/27 09:50:20;;;;;;;1999.90;999.90;;;;;;;21.54;100.00;99648.66;5053373;28;20071;-54
2022/07/27 09:53:21;;;;;;;1999.90;999.90;;;;;;;21.88;100.00;99652.38;5056388;28;20044;-52
2022/07/27 09:56:12;;;;;;;1999.90;999.90;;;;;;;23.27;100.00;99654.16;5054921;28;20044;-54
2022/07/27 09:58:58;;;;;;;1999.90;999.90;;;;;;;24.65;100.00;99647.25;5054631;28;20048;-54
2022/07/27 10:01:43;;;;;;;1999.90;999.90;;;;;;;25.14;100.00;99645.66;5052131;28;21131;-54
2022/07/27 10:04:27;;;;;;;1999.90;999.90;;;;;;;25.87;100.00;99635.56;5054659;28;20711;-55
2022/07/27 10:07:12;;;;;;;1999.90;999.90;;;;;;;25.50;100.00;99636.19;5053986;28;20041;-54
2022/07/27 10:09:56;;;;;;;1999.90;999.90;;;;;;;24.23;100.00;99626.66;5055105;28;20438;-55
2022/07/27 10:12:44;;;;;;;1999.90;999.90;;;;;;;24.24;100.00;99633.72;5055705;28;20052;-55
2022/07/27 10:15:30;;;;;;;1999.90;999.90;;;;;;;23.48;100.00;99646.22;5070626;28;20143;-56
2022/07/27 10:18:21;;;;;;;1999.90;999.90;;;;;;;23.87;100.00;99640.44;5066100;28;20067;-54
2022/07/27 10:21:07;;;;;;;1999.90;999.90;;;;;;;23.63;100.00;99641.47;5063882;28;20415;-55
2022/07/27 10:24:19;;;;;;;1999.90;999.90;;;;;;;23.01;100.00;99642.88;5065704;28;20041;-54
2022/07/27 10:27:21;;;;;;;1999.90;999.90;;;;;;;22.75;100.00;99644.03;5071121;28;20044;-55
2022/07/27 10:30:06;;;;;;;1999.90;999.90;;;;;;;22.50;100.00;99656.63;5068796;28;20040;-53
2022/07/27 10:32:51;;;;;;;1999.90;999.90;;;;;;;22.55;100.00;99656.25;5065442;28;20071;-55
2022/07/27 10:35:35;;;;;;;1999.90;999.90;;;;;;;22.18;100.00;99656.41;5064294;28;20366;-53
2022/07/27 10:38:20;;;;;;;1999.90;999.90;;;;;;;22.00;100.00;99655.97;5064324;28;20594;-54
2022/07/27 10:41:29;;;;;;;1999.90;999.90;;;;;;;23.27;100.00;99656.84;5065227;28;20052;-54
2022/07/27 10:44:17;;;;;;;1999.90;999.90;;;;;;;24.51;100.00;99655.63;5069204;28;20147;-54
2022/07/27 10:47:03;;;;;;;1999.90;999.90;;;;;;;24.54;100.00;99648.19;5065375;28;20049;-55
2022/07/27 10:49:47;;;;;;;1999.90;999.90;;;;;;;23.29;100.00;99652.19;5057696;28;20045;-54
2022/07/27 10:52:58;;;;;;;1999.90;999.90;;;;;;;24.20;100.00;99659.00;5055267;28;20048;-54
2022/07/27 10:55:43;;;;;;;1999.90;999.90;;;;;;;24.15;100.00;99663.06;5067351;28;20143;-53
2022/07/27 10:58:42;;;;;;;1999.90;999.90;;;;;;;23.42;100.00;99662.75;5066596;28;20049;-54
2022/07/27 11:01:26;;;;;;;1999.90;999.90;;;;;;;23.02;100.00;99657.09;5053298;28;20551;-54
2022/07/27 11:04:11;;;;;;;1999.90;999.90;;;;;;;23.23;100.00;99657.19;5052588;28;20435;-54
2022/07/27 11:06:59;;;;;;;1999.90;999.90;;;;;;;22.87;100.00;99662.63;5053164;28;20064;-54
2022/07/27 11:09:45;;;;;;;1999.90;999.90;;;;;;;22.64;100.00;99660.91;5058498;28;20052;-53
2022/07/27 11:12:30;;;;;;;1999.90;999.90;;;;;;;23.43;100.00;99658.25;5053487;28;20084;-55
2022/07/27 11:15:15;;;;;;;1999.90;999.90;;;;;;;23.22;100.00;99661.69;5055043;28;20045;-53
2022/07/27 11:17:59;;;;;;;1999.90;999.90;;;;;;;23.10;100.00;99658.16;5052262;28;20059;-54
2022/07/27 11:20:43;;;;;;;1999.90;999.90;;;;;;;23.35;100.00;99669.56;5057682;28;20041;-54
2022/07/27 11:23:27;;;;;;;1999.90;999.90;;;;;;;23.50;100.00;99660.31;5057856;28;20063;-53
2022/07/27 11:26:13;;;;;;;1999.90;999.90;;;;;;;23.50;100.00;99657.66;5053804;28;20063;-55
2022/07/27 11:28:58;;;;;;;1999.90;999.90;;;;;;;23.80;100.00;99658.81;5053081;28;20487;-57
2022/07/27 11:31:44;;;;;;;1999.90;999.90;;;;;;;23.79;100.00;99649.13;5052684;28;20045;-55
2022/07/27 11:34:31;;;;;;;1999.90;999.90;;;;;;;23.50;100.00;99665.66;5057075;28;20094;-55
2022/07/27 11:37:19;;;;;;;1999.90;999.90;;;;;;;23.96;98.30;99661.94;5058065;28;20693;-56
2022/07/27 11:40:04;;;;;;;1999.90;999.90;;;;;;;23.76;100.00;99666.25;5059870;28;20068;-56
2022/07/27 11:42:49;;;;;;;1999.90;999.90;;;;;;;24.06;100.00;99662.00;5056140;28;20545;-55
2022/07/27 11:45:38;;;;;;;1999.90;999.90;;;;;;;23.36;100.00;99663.25;5059468;28;20040;-54
2022/07/27 11:48:23;;;;;;;1999.90;999.90;;;;;;;22.93;100.00;99665.78;5064288;28;20036;-54
2022/07/27 11:51:07;;;;;;;1999.90;999.90;;;;;;;22.45;100.00;99668.63;5066017;28;20150;-52
2022/07/27 11:54:00;;;;;;;1999.90;999.90;;;;;;;22.57;100.00;99668.53;5069079;28;20091;-53
2022/07/27 11:56:47;;;;;;;1999.90;999.90;;;;;;;22.54;100.00;99665.25;5069039;28;20044;-52
2022/07/27 11:59:38;;;;;;;1999.90;999.90;;;;;;;22.47;100.00;99666.69;5084642;28;20052;-55
2022/07/27 12:02:24;;;;;;;1999.90;999.90;;;;;;;22.61;100.00;99666.47;5069918;28;20075;-57
2022/07/27 12:05:09;;;;;;;1999.90;999.90;;;;;;;22.65;100.00;99673.25;5069095;28;20048;-56
2022/07/27 12:07:54;;;;;;;1999.90;999.90;;;;;;;22.94;100.00;99671.03;5071199;28;20087;-54
2022/07/27 12:10:38;;;;;;;1999.90;999.90;;;;;;;24.11;98.55;99662.47;5069646;28;20056;-51